sensor_id;sensor_type;location;lat;lon;timestamp;P1;durP1;ratioP1;P2;durP2;ratioP2
57822;SDS011;43650;48.064;20.624;2023-04-19T00:00:10;8.27;;;3.73;;
57822;SDS011;43650;48.064;20.624;2023-04-19T00:01:11;8.77;;;4.07;;
57822;SDS011;43650;48.064;20.624;2023-04-19T00:02:11;10.73;;;4.27;;
57822;SDS011;43650;48.064;20.624;2023-04-19T00:03:12;5.70;;;3.23;;
57822;SDS011;43650;48.064;20.624;2023-04-19T00:04:13;7.90;;;3.72;;
57822;SDS011;43650;48.064;20.624;2023-04-19T00:05:14;7.47;;;3.90;;
57822;SDS011;43650;48.064;20.624;2023-04-19T00:06:14;8.32;;;4.32;;
57822;SDS011;43650;48.064;20.624;2023-04-19T00:07:15;7.63;;;3.80;;
57822;SDS011;43650;48.064;20.624;2023-04-19T00:08:17;7.00;;;4.22;;
57822;SDS011;43650;48.064;20.624;2023-04-19T00:09:17;8.73;;;4.70;;
57822;SDS011;43650;48.064;20.624;2023-04-19T00:10:18;7.10;;;3.73;;
57822;SDS011;43650;48.064;20.624;2023-04-19T00:11:19;7.60;;;3.95;;
57822;SDS011;43650;48.064;20.624;2023-04-19T00:12:19;6.68;;;3.53;;
57822;SDS011;43650;48.064;20.624;2023-04-19T00:13:20;5.80;;;3.37;;
57822;SDS011;43650;48.064;20.624;2023-04-19T00:14:20;9.85;;;4.35;;
57822;SDS011;43650;48.064;20.624;2023-04-19T00:15:21;6.03;;;4.30;;
57822;SDS011;43650;48.064;20.624;2023-04-19T00:16:21;8.53;;;3.77;;
57822;SDS011;43650;48.064;20.624;2023-04-19T00:17:22;7.37;;;3.97;;
57822;SDS011;43650;48.064;20.624;2023-04-19T00:18:22;5.77;;;3.70;;
57822;SDS011;43650;48.064;20.624;2023-04-19T00:19:23;8.10;;;3.87;;
57822;SDS011;43650;48.064;20.624;2023-04-19T00:20:23;8.00;;;3.90;;
57822;SDS011;43650;48.064;20.624;2023-04-19T00:21:23;5.33;;;4.20;;
57822;SDS011;43650;48.064;20.624;2023-04-19T00:22:25;5.72;;;3.67;;
57822;SDS011;43650;48.064;20.624;2023-04-19T00:23:25;9.82;;;4.57;;
57822;SDS011;43650;48.064;20.624;2023-04-19T00:24:26;7.00;;;3.23;;
57822;SDS011;43650;48.064;20.624;2023-04-19T00:25:26;8.30;;;3.77;;
57822;SDS011;43650;48.064;20.624;2023-04-19T00:26:28;7.47;;;3.70;;
57822;SDS011;43650;48.064;20.624;2023-04-19T00:27:28;7.60;;;4.07;;
57822;SDS011;43650;48.064;20.624;2023-04-19T00:28:29;8.23;;;4.30;;
57822;SDS011;43650;48.064;20.624;2023-04-19T00:29:30;9.25;;;3.78;;
57822;SDS011;43650;48.064;20.624;2023-04-19T00:30:30;7.82;;;4.50;;
57822;SDS011;43650;48.064;20.624;2023-04-19T00:31:31;14.80;;;5.03;;
57822;SDS011;43650;48.064;20.624;2023-04-19T00:32:31;12.13;;;5.87;;
57822;SDS011;43650;48.064;20.624;2023-04-19T00:33:32;10.13;;;4.70;;
57822;SDS011;43650;48.064;20.624;2023-04-19T00:34:32;10.15;;;4.75;;
57822;SDS011;43650;48.064;20.624;2023-04-19T00:35:33;7.70;;;4.23;;
57822;SDS011;43650;48.064;20.624;2023-04-19T00:36:33;12.20;;;4.97;;
57822;SDS011;43650;48.064;20.624;2023-04-19T00:37:34;7.83;;;4.10;;
57822;SDS011;43650;48.064;20.624;2023-04-19T00:38:34;7.40;;;4.55;;
57822;SDS011;43650;48.064;20.624;2023-04-19T00:39:35;9.67;;;4.77;;
57822;SDS011;43650;48.064;20.624;2023-04-19T00:40:36;7.07;;;4.17;;
57822;SDS011;43650;48.064;20.624;2023-04-19T00:41:36;6.78;;;3.65;;
57822;SDS011;43650;48.064;20.624;2023-04-19T00:42:37;9.53;;;4.17;;
57822;SDS011;43650;48.064;20.624;2023-04-19T00:43:37;9.53;;;4.17;;
57822;SDS011;43650;48.064;20.624;2023-04-19T00:44:38;7.27;;;4.57;;
57822;SDS011;43650;48.064;20.624;2023-04-19T00:45:38;6.57;;;4.10;;
57822;SDS011;43650;48.064;20.624;2023-04-19T00:46:39;6.87;;;4.20;;
57822;SDS011;43650;48.064;20.624;2023-04-19T00:47:39;8.57;;;3.83;;
57822;SDS011;43650;48.064;20.624;2023-04-19T00:48:40;8.97;;;3.70;;
57822;SDS011;43650;48.064;20.624;2023-04-19T00:49:40;9.07;;;5.10;;
57822;SDS011;43650;48.064;20.624;2023-04-19T00:50:42;7.43;;;4.03;;
57822;SDS011;43650;48.064;20.624;2023-04-19T00:51:43;6.75;;;4.32;;
57822;SDS011;43650;48.064;20.624;2023-04-19T00:52:44;9.60;;;4.33;;
57822;SDS011;43650;48.064;20.624;2023-04-19T00:53:46;7.97;;;4.45;;
57822;SDS011;43650;48.064;20.624;2023-04-19T00:54:47;6.68;;;3.67;;
57822;SDS011;43650;48.064;20.624;2023-04-19T00:55:47;10.10;;;4.70;;
57822;SDS011;43650;48.064;20.624;2023-04-19T00:56:50;5.55;;;3.72;;
57822;SDS011;43650;48.064;20.624;2023-04-19T00:57:50;6.37;;;3.73;;
57822;SDS011;43650;48.064;20.624;2023-04-19T00:58:52;6.23;;;3.97;;
57822;SDS011;43650;48.064;20.624;2023-04-19T00:59:53;10.63;;;4.40;;
57822;SDS011;43650;48.064;20.624;2023-04-19T01:00:53;7.75;;;4.30;;
57822;SDS011;43650;48.064;20.624;2023-04-19T01:01:54;7.70;;;3.90;;
57822;SDS011;43650;48.064;20.624;2023-04-19T01:02:54;7.63;;;4.50;;
57822;SDS011;43650;48.064;20.624;2023-04-19T01:03:55;6.67;;;4.33;;
57822;SDS011;43650;48.064;20.624;2023-04-19T01:04:55;12.00;;;4.57;;
57822;SDS011;43650;48.064;20.624;2023-04-19T01:05:56;6.68;;;3.42;;
57822;SDS011;43650;48.064;20.624;2023-04-19T01:06:57;7.77;;;4.40;;
57822;SDS011;43650;48.064;20.624;2023-04-19T01:07:57;8.17;;;4.03;;
57822;SDS011;43650;48.064;20.624;2023-04-19T01:08:58;7.07;;;4.30;;
57822;SDS011;43650;48.064;20.624;2023-04-19T01:09:58;6.10;;;4.00;;
57822;SDS011;43650;48.064;20.624;2023-04-19T01:10:59;7.70;;;3.90;;
57822;SDS011;43650;48.064;20.624;2023-04-19T01:12:00;7.23;;;3.93;;
57822;SDS011;43650;48.064;20.624;2023-04-19T01:13:01;6.07;;;3.60;;
57822;SDS011;43650;48.064;20.624;2023-04-19T01:14:01;8.25;;;3.85;;
57822;SDS011;43650;48.064;20.624;2023-04-19T01:15:02;8.70;;;4.27;;
57822;SDS011;43650;48.064;20.624;2023-04-19T01:16:03;8.40;;;4.28;;
57822;SDS011;43650;48.064;20.624;2023-04-19T01:17:05;6.72;;;3.95;;
57822;SDS011;43650;48.064;20.624;2023-04-19T01:19:06;13.30;;;4.35;;
57822;SDS011;43650;48.064;20.624;2023-04-19T01:20:07;7.43;;;3.70;;
57822;SDS011;43650;48.064;20.624;2023-04-19T01:21:08;12.43;;;4.78;;
57822;SDS011;43650;48.064;20.624;2023-04-19T01:22:09;7.40;;;4.33;;
57822;SDS011;43650;48.064;20.624;2023-04-19T01:23:14;9.32;;;4.82;;
57822;SDS011;43650;48.064;20.624;2023-04-19T01:24:14;10.27;;;4.60;;
57822;SDS011;43650;48.064;20.624;2023-04-19T01:25:15;7.90;;;4.53;;
57822;SDS011;43650;48.064;20.624;2023-04-19T01:26:15;7.03;;;4.03;;
57822;SDS011;43650;48.064;20.624;2023-04-19T01:27:16;6.37;;;4.43;;
57822;SDS011;43650;48.064;20.624;2023-04-19T01:28:16;6.33;;;3.80;;
57822;SDS011;43650;48.064;20.624;2023-04-19T01:29:17;9.10;;;4.63;;
57822;SDS011;43650;48.064;20.624;2023-04-19T01:30:17;8.32;;;3.80;;
57822;SDS011;43650;48.064;20.624;2023-04-19T01:31:18;12.00;;;4.37;;
57822;SDS011;43650;48.064;20.624;2023-04-19T01:32:18;7.57;;;3.53;;
57822;SDS011;43650;48.064;20.624;2023-04-19T01:33:22;6.63;;;4.07;;
57822;SDS011;43650;48.064;20.624;2023-04-19T01:34:22;10.13;;;4.10;;
57822;SDS011;43650;48.064;20.624;2023-04-19T01:35:23;6.90;;;3.90;;
57822;SDS011;43650;48.064;20.624;2023-04-19T01:36:23;7.80;;;3.87;;
57822;SDS011;43650;48.064;20.624;2023-04-19T01:37:24;8.47;;;4.30;;
57822;SDS011;43650;48.064;20.624;2023-04-19T01:38:24;6.40;;;4.13;;
57822;SDS011;43650;48.064;20.624;2023-04-19T01:39:25;11.00;;;3.90;;
57822;SDS011;43650;48.064;20.624;2023-04-19T01:40:26;7.00;;;4.25;;
57822;SDS011;43650;48.064;20.624;2023-04-19T01:41:26;7.90;;;4.03;;
57822;SDS011;43650;48.064;20.624;2023-04-19T01:42:28;11.88;;;4.43;;
57822;SDS011;43650;48.064;20.624;2023-04-19T01:43:29;8.87;;;4.97;;
57822;SDS011;43650;48.064;20.624;2023-04-19T01:44:29;8.13;;;4.03;;
57822;SDS011;43650;48.064;20.624;2023-04-19T01:45:30;11.57;;;4.27;;
57822;SDS011;43650;48.064;20.624;2023-04-19T01:46:32;9.88;;;4.30;;
57822;SDS011;43650;48.064;20.624;2023-04-19T01:47:34;8.88;;;3.55;;
57822;SDS011;43650;48.064;20.624;2023-04-19T01:48:34;6.60;;;4.30;;
57822;SDS011;43650;48.064;20.624;2023-04-19T01:49:35;6.57;;;4.03;;
57822;SDS011;43650;48.064;20.624;2023-04-19T01:50:35;7.40;;;3.57;;
57822;SDS011;43650;48.064;20.624;2023-04-19T01:51:37;5.97;;;4.63;;
57822;SDS011;43650;48.064;20.624;2023-04-19T01:52:37;9.07;;;4.80;;
57822;SDS011;43650;48.064;20.624;2023-04-19T01:53:38;6.67;;;4.03;;
57822;SDS011;43650;48.064;20.624;2023-04-19T01:54:38;9.57;;;4.67;;
57822;SDS011;43650;48.064;20.624;2023-04-19T01:55:39;8.67;;;4.23;;
57822;SDS011;43650;48.064;20.624;2023-04-19T01:56:39;8.10;;;3.77;;
57822;SDS011;43650;48.064;20.624;2023-04-19T01:57:39;10.57;;;5.10;;
57822;SDS011;43650;48.064;20.624;2023-04-19T01:58:40;8.17;;;4.30;;
57822;SDS011;43650;48.064;20.624;2023-04-19T01:59:43;7.00;;;4.63;;
57822;SDS011;43650;48.064;20.624;2023-04-19T02:00:44;9.88;;;4.68;;
57822;SDS011;43650;48.064;20.624;2023-04-19T02:01:45;7.62;;;4.93;;
57822;SDS011;43650;48.064;20.624;2023-04-19T02:02:45;11.30;;;4.33;;
57822;SDS011;43650;48.064;20.624;2023-04-19T02:03:46;10.13;;;4.77;;
57822;SDS011;43650;48.064;20.624;2023-04-19T02:04:46;6.07;;;4.03;;
57822;SDS011;43650;48.064;20.624;2023-04-19T02:05:47;7.33;;;4.00;;
57822;SDS011;43650;48.064;20.624;2023-04-19T02:06:47;10.53;;;5.00;;
57822;SDS011;43650;48.064;20.624;2023-04-19T02:07:47;6.30;;;4.23;;
57822;SDS011;43650;48.064;20.624;2023-04-19T02:08:48;8.53;;;4.47;;
57822;SDS011;43650;48.064;20.624;2023-04-19T02:09:48;11.20;;;4.57;;
57822;SDS011;43650;48.064;20.624;2023-04-19T02:10:49;10.50;;;5.20;;
57822;SDS011;43650;48.064;20.624;2023-04-19T02:11:49;8.73;;;4.40;;
57822;SDS011;43650;48.064;20.624;2023-04-19T02:12:49;7.63;;;4.37;;
57822;SDS011;43650;48.064;20.624;2023-04-19T02:13:50;8.20;;;5.10;;
57822;SDS011;43650;48.064;20.624;2023-04-19T02:14:50;12.60;;;5.17;;
57822;SDS011;43650;48.064;20.624;2023-04-19T02:15:51;7.77;;;4.70;;
57822;SDS011;43650;48.064;20.624;2023-04-19T02:16:51;13.77;;;5.43;;
57822;SDS011;43650;48.064;20.624;2023-04-19T02:17:51;15.37;;;4.53;;
57822;SDS011;43650;48.064;20.624;2023-04-19T02:18:52;6.93;;;4.53;;
57822;SDS011;43650;48.064;20.624;2023-04-19T02:19:52;8.53;;;4.37;;
57822;SDS011;43650;48.064;20.624;2023-04-19T02:20:53;7.90;;;4.85;;
57822;SDS011;43650;48.064;20.624;2023-04-19T02:21:54;8.50;;;4.23;;
57822;SDS011;43650;48.064;20.624;2023-04-19T02:22:56;9.82;;;4.37;;
57822;SDS011;43650;48.064;20.624;2023-04-19T02:23:57;9.30;;;5.07;;
57822;SDS011;43650;48.064;20.624;2023-04-19T02:24:57;9.33;;;4.60;;
57822;SDS011;43650;48.064;20.624;2023-04-19T02:25:58;7.80;;;4.37;;
57822;SDS011;43650;48.064;20.624;2023-04-19T02:27:00;11.52;;;4.60;;
57822;SDS011;43650;48.064;20.624;2023-04-19T02:28:00;12.50;;;4.60;;
57822;SDS011;43650;48.064;20.624;2023-04-19T02:29:01;11.87;;;5.33;;
57822;SDS011;43650;48.064;20.624;2023-04-19T02:30:01;6.70;;;4.43;;
57822;SDS011;43650;48.064;20.624;2023-04-19T02:31:03;10.07;;;4.57;;
57822;SDS011;43650;48.064;20.624;2023-04-19T02:32:04;16.20;;;5.62;;
57822;SDS011;43650;48.064;20.624;2023-04-19T02:33:05;11.18;;;4.80;;
57822;SDS011;43650;48.064;20.624;2023-04-19T02:34:06;9.65;;;4.97;;
57822;SDS011;43650;48.064;20.624;2023-04-19T02:35:07;8.27;;;4.87;;
57822;SDS011;43650;48.064;20.624;2023-04-19T02:36:08;9.67;;;4.60;;
57822;SDS011;43650;48.064;20.624;2023-04-19T02:37:08;11.60;;;4.32;;
57822;SDS011;43650;48.064;20.624;2023-04-19T02:38:09;8.73;;;5.00;;
57822;SDS011;43650;48.064;20.624;2023-04-19T02:39:09;7.47;;;5.13;;
57822;SDS011;43650;48.064;20.624;2023-04-19T02:40:10;9.77;;;5.37;;
57822;SDS011;43650;48.064;20.624;2023-04-19T02:41:10;9.10;;;4.73;;
57822;SDS011;43650;48.064;20.624;2023-04-19T02:42:11;8.90;;;5.20;;
57822;SDS011;43650;48.064;20.624;2023-04-19T02:43:11;9.13;;;4.87;;
57822;SDS011;43650;48.064;20.624;2023-04-19T02:44:12;8.83;;;5.50;;
57822;SDS011;43650;48.064;20.624;2023-04-19T02:45:12;10.93;;;5.57;;
57822;SDS011;43650;48.064;20.624;2023-04-19T02:46:13;8.10;;;5.23;;
57822;SDS011;43650;48.064;20.624;2023-04-19T02:47:13;13.57;;;5.40;;
57822;SDS011;43650;48.064;20.624;2023-04-19T02:48:13;10.43;;;6.57;;
57822;SDS011;43650;48.064;20.624;2023-04-19T02:49:14;8.70;;;5.23;;
57822;SDS011;43650;48.064;20.624;2023-04-19T02:50:15;14.45;;;5.93;;
57822;SDS011;43650;48.064;20.624;2023-04-19T02:51:16;11.40;;;6.60;;
57822;SDS011;43650;48.064;20.624;2023-04-19T02:52:16;10.80;;;5.95;;
57822;SDS011;43650;48.064;20.624;2023-04-19T02:53:17;8.23;;;5.57;;
57822;SDS011;43650;48.064;20.624;2023-04-19T02:54:17;11.43;;;5.60;;
57822;SDS011;43650;48.064;20.624;2023-04-19T02:55:17;11.00;;;5.77;;
57822;SDS011;43650;48.064;20.624;2023-04-19T02:56:18;11.70;;;5.73;;
57822;SDS011;43650;48.064;20.624;2023-04-19T02:57:18;9.93;;;5.20;;
57822;SDS011;43650;48.064;20.624;2023-04-19T02:58:19;11.53;;;5.03;;
57822;SDS011;43650;48.064;20.624;2023-04-19T02:59:19;9.97;;;5.87;;
57822;SDS011;43650;48.064;20.624;2023-04-19T03:00:19;12.33;;;5.73;;
57822;SDS011;43650;48.064;20.624;2023-04-19T03:01:20;14.60;;;6.40;;
57822;SDS011;43650;48.064;20.624;2023-04-19T03:02:20;9.90;;;5.23;;
57822;SDS011;43650;48.064;20.624;2023-04-19T03:03:21;9.80;;;5.23;;
57822;SDS011;43650;48.064;20.624;2023-04-19T03:04:21;10.77;;;6.60;;
57822;SDS011;43650;48.064;20.624;2023-04-19T03:05:22;8.87;;;6.13;;
57822;SDS011;43650;48.064;20.624;2023-04-19T03:06:23;9.20;;;5.62;;
57822;SDS011;43650;48.064;20.624;2023-04-19T03:07:23;13.13;;;6.68;;
57822;SDS011;43650;48.064;20.624;2023-04-19T03:08:24;10.13;;;5.90;;
57822;SDS011;43650;48.064;20.624;2023-04-19T03:09:25;12.27;;;6.00;;
57822;SDS011;43650;48.064;20.624;2023-04-19T03:10:25;9.43;;;6.03;;
57822;SDS011;43650;48.064;20.624;2023-04-19T03:11:25;9.27;;;5.70;;
57822;SDS011;43650;48.064;20.624;2023-04-19T03:12:26;15.00;;;5.50;;
57822;SDS011;43650;48.064;20.624;2023-04-19T03:13:26;12.30;;;6.03;;
57822;SDS011;43650;48.064;20.624;2023-04-19T03:14:27;10.73;;;5.43;;
57822;SDS011;43650;48.064;20.624;2023-04-19T03:15:27;9.80;;;5.80;;
57822;SDS011;43650;48.064;20.624;2023-04-19T03:16:28;11.50;;;6.13;;
57822;SDS011;43650;48.064;20.624;2023-04-19T03:17:29;10.48;;;6.18;;
57822;SDS011;43650;48.064;20.624;2023-04-19T03:18:29;14.50;;;7.23;;
57822;SDS011;43650;48.064;20.624;2023-04-19T03:19:30;12.23;;;6.60;;
57822;SDS011;43650;48.064;20.624;2023-04-19T03:20:30;9.27;;;6.07;;
57822;SDS011;43650;48.064;20.624;2023-04-19T03:21:30;12.33;;;6.90;;
57822;SDS011;43650;48.064;20.624;2023-04-19T03:22:31;18.33;;;8.23;;
57822;SDS011;43650;48.064;20.624;2023-04-19T03:23:31;13.13;;;7.30;;
57822;SDS011;43650;48.064;20.624;2023-04-19T03:24:32;10.47;;;5.80;;
57822;SDS011;43650;48.064;20.624;2023-04-19T03:25:32;12.37;;;6.27;;
57822;SDS011;43650;48.064;20.624;2023-04-19T03:26:32;11.93;;;6.37;;
57822;SDS011;43650;48.064;20.624;2023-04-19T03:27:34;13.30;;;6.43;;
57822;SDS011;43650;48.064;20.624;2023-04-19T03:28:35;15.73;;;6.75;;
57822;SDS011;43650;48.064;20.624;2023-04-19T03:29:36;10.83;;;7.17;;
57822;SDS011;43650;48.064;20.624;2023-04-19T03:30:36;9.20;;;5.70;;
57822;SDS011;43650;48.064;20.624;2023-04-19T03:31:37;11.73;;;5.90;;
57822;SDS011;43650;48.064;20.624;2023-04-19T03:32:37;10.97;;;6.07;;
57822;SDS011;43650;48.064;20.624;2023-04-19T03:33:37;11.23;;;6.00;;
57822;SDS011;43650;48.064;20.624;2023-04-19T03:34:38;14.50;;;6.30;;
57822;SDS011;43650;48.064;20.624;2023-04-19T03:35:38;11.83;;;5.97;;
57822;SDS011;43650;48.064;20.624;2023-04-19T03:36:39;10.77;;;6.57;;
57822;SDS011;43650;48.064;20.624;2023-04-19T03:37:39;11.52;;;6.80;;
57822;SDS011;43650;48.064;20.624;2023-04-19T03:38:40;12.23;;;7.60;;
57822;SDS011;43650;48.064;20.624;2023-04-19T03:39:40;14.63;;;6.30;;
57822;SDS011;43650;48.064;20.624;2023-04-19T03:40:41;23.40;;;6.90;;
57822;SDS011;43650;48.064;20.624;2023-04-19T03:41:41;11.97;;;6.57;;
57822;SDS011;43650;48.064;20.624;2023-04-19T03:42:41;12.33;;;7.37;;
57822;SDS011;43650;48.064;20.624;2023-04-19T03:43:42;11.40;;;6.57;;
57822;SDS011;43650;48.064;20.624;2023-04-19T03:44:42;9.77;;;6.40;;
57822;SDS011;43650;48.064;20.624;2023-04-19T03:45:43;14.83;;;7.07;;
57822;SDS011;43650;48.064;20.624;2023-04-19T03:46:43;10.57;;;6.97;;
57822;SDS011;43650;48.064;20.624;2023-04-19T03:47:45;14.38;;;6.25;;
57822;SDS011;43650;48.064;20.624;2023-04-19T03:48:45;15.80;;;7.80;;
57822;SDS011;43650;48.064;20.624;2023-04-19T03:49:46;14.95;;;7.07;;
57822;SDS011;43650;48.064;20.624;2023-04-19T03:50:47;11.07;;;6.10;;
57822;SDS011;43650;48.064;20.624;2023-04-19T03:51:47;12.43;;;6.90;;
57822;SDS011;43650;48.064;20.624;2023-04-19T03:52:48;12.67;;;6.83;;
57822;SDS011;43650;48.064;20.624;2023-04-19T03:53:48;12.77;;;6.87;;
57822;SDS011;43650;48.064;20.624;2023-04-19T03:54:49;10.20;;;6.47;;
57822;SDS011;43650;48.064;20.624;2023-04-19T03:55:49;12.73;;;6.90;;
57822;SDS011;43650;48.064;20.624;2023-04-19T03:56:50;11.30;;;6.03;;
57822;SDS011;43650;48.064;20.624;2023-04-19T03:57:50;15.23;;;7.90;;
57822;SDS011;43650;48.064;20.624;2023-04-19T03:58:50;13.73;;;7.10;;
57822;SDS011;43650;48.064;20.624;2023-04-19T03:59:51;10.80;;;5.90;;
57822;SDS011;43650;48.064;20.624;2023-04-19T04:00:51;12.23;;;6.80;;
57822;SDS011;43650;48.064;20.624;2023-04-19T04:01:52;11.27;;;6.50;;
57822;SDS011;43650;48.064;20.624;2023-04-19T04:02:53;12.83;;;6.90;;
57822;SDS011;43650;48.064;20.624;2023-04-19T04:03:53;16.83;;;6.60;;
57822;SDS011;43650;48.064;20.624;2023-04-19T04:04:53;17.93;;;6.77;;
57822;SDS011;43650;48.064;20.624;2023-04-19T04:05:54;14.52;;;7.00;;
57822;SDS011;43650;48.064;20.624;2023-04-19T04:06:54;12.43;;;6.03;;
57822;SDS011;43650;48.064;20.624;2023-04-19T04:07:55;9.43;;;5.20;;
57822;SDS011;43650;48.064;20.624;2023-04-19T04:08:56;15.48;;;6.32;;
57822;SDS011;43650;48.064;20.624;2023-04-19T04:09:57;9.00;;;5.87;;
57822;SDS011;43650;48.064;20.624;2023-04-19T04:10:57;15.82;;;6.68;;
57822;SDS011;43650;48.064;20.624;2023-04-19T04:11:58;10.20;;;5.97;;
57822;SDS011;43650;48.064;20.624;2023-04-19T04:12:58;13.40;;;6.17;;
57822;SDS011;43650;48.064;20.624;2023-04-19T04:13:59;11.37;;;6.37;;
57822;SDS011;43650;48.064;20.624;2023-04-19T04:14:59;12.97;;;6.63;;
57822;SDS011;43650;48.064;20.624;2023-04-19T04:16:00;11.27;;;6.07;;
57822;SDS011;43650;48.064;20.624;2023-04-19T04:17:00;12.05;;;6.90;;
57822;SDS011;43650;48.064;20.624;2023-04-19T04:18:01;11.13;;;6.27;;
57822;SDS011;43650;48.064;20.624;2023-04-19T04:19:01;14.37;;;7.37;;
57822;SDS011;43650;48.064;20.624;2023-04-19T04:20:02;12.97;;;6.50;;
57822;SDS011;43650;48.064;20.624;2023-04-19T04:21:02;13.67;;;7.73;;
57822;SDS011;43650;48.064;20.624;2023-04-19T04:22:03;11.20;;;6.93;;
57822;SDS011;43650;48.064;20.624;2023-04-19T04:23:05;17.05;;;6.72;;
57822;SDS011;43650;48.064;20.624;2023-04-19T04:24:06;14.63;;;7.45;;
57822;SDS011;43650;48.064;20.624;2023-04-19T04:25:07;12.57;;;6.50;;
57822;SDS011;43650;48.064;20.624;2023-04-19T04:26:08;14.05;;;8.27;;
57822;SDS011;43650;48.064;20.624;2023-04-19T04:27:09;13.02;;;7.35;;
57822;SDS011;43650;48.064;20.624;2023-04-19T04:28:09;15.48;;;6.53;;
57822;SDS011;43650;48.064;20.624;2023-04-19T04:29:10;11.40;;;7.90;;
57822;SDS011;43650;48.064;20.624;2023-04-19T04:30:10;16.23;;;6.73;;
57822;SDS011;43650;48.064;20.624;2023-04-19T04:31:11;11.00;;;6.23;;
57822;SDS011;43650;48.064;20.624;2023-04-19T04:32:11;11.93;;;6.50;;
57822;SDS011;43650;48.064;20.624;2023-04-19T04:33:13;11.43;;;6.12;;
57822;SDS011;43650;48.064;20.624;2023-04-19T04:34:13;14.43;;;7.60;;
57822;SDS011;43650;48.064;20.624;2023-04-19T04:35:14;8.03;;;5.53;;
57822;SDS011;43650;48.064;20.624;2023-04-19T04:36:14;14.43;;;6.77;;
57822;SDS011;43650;48.064;20.624;2023-04-19T04:37:15;12.57;;;6.23;;
57822;SDS011;43650;48.064;20.624;2023-04-19T04:38:16;12.73;;;6.00;;
57822;SDS011;43650;48.064;20.624;2023-04-19T04:39:17;11.17;;;5.63;;
57822;SDS011;43650;48.064;20.624;2023-04-19T04:40:18;10.75;;;6.03;;
57822;SDS011;43650;48.064;20.624;2023-04-19T04:41:18;8.38;;;5.12;;
57822;SDS011;43650;48.064;20.624;2023-04-19T04:42:19;12.80;;;6.25;;
57822;SDS011;43650;48.064;20.624;2023-04-19T04:43:20;8.82;;;5.65;;
57822;SDS011;43650;48.064;20.624;2023-04-19T04:44:24;10.52;;;5.18;;
57822;SDS011;43650;48.064;20.624;2023-04-19T04:45:25;11.57;;;6.00;;
57822;SDS011;43650;48.064;20.624;2023-04-19T04:46:25;11.85;;;6.40;;
57822;SDS011;43650;48.064;20.624;2023-04-19T04:47:32;9.65;;;5.18;;
57822;SDS011;43650;48.064;20.624;2023-04-19T04:48:33;11.18;;;6.53;;
57822;SDS011;43650;48.064;20.624;2023-04-19T04:49:34;13.53;;;6.63;;
57822;SDS011;43650;48.064;20.624;2023-04-19T04:50:35;11.48;;;6.37;;
57822;SDS011;43650;48.064;20.624;2023-04-19T04:51:35;9.63;;;5.40;;
57822;SDS011;43650;48.064;20.624;2023-04-19T04:52:36;18.25;;;6.10;;
57822;SDS011;43650;48.064;20.624;2023-04-19T04:53:36;11.47;;;6.07;;
57822;SDS011;43650;48.064;20.624;2023-04-19T04:54:37;7.67;;;5.17;;
57822;SDS011;43650;48.064;20.624;2023-04-19T04:55:37;14.63;;;6.87;;
57822;SDS011;43650;48.064;20.624;2023-04-19T04:56:38;11.67;;;6.53;;
57822;SDS011;43650;48.064;20.624;2023-04-19T04:57:38;12.60;;;6.13;;
57822;SDS011;43650;48.064;20.624;2023-04-19T04:58:38;20.13;;;6.10;;
57822;SDS011;43650;48.064;20.624;2023-04-19T04:59:39;18.13;;;6.60;;
57822;SDS011;43650;48.064;20.624;2023-04-19T05:00:39;12.10;;;6.30;;
57822;SDS011;43650;48.064;20.624;2023-04-19T05:01:40;9.73;;;6.57;;
57822;SDS011;43650;48.064;20.624;2023-04-19T05:02:40;13.10;;;6.57;;
57822;SDS011;43650;48.064;20.624;2023-04-19T05:03:41;11.33;;;6.30;;
57822;SDS011;43650;48.064;20.624;2023-04-19T05:04:41;13.03;;;6.47;;
57822;SDS011;43650;48.064;20.624;2023-04-19T05:05:42;18.93;;;6.27;;
57822;SDS011;43650;48.064;20.624;2023-04-19T05:06:42;11.53;;;6.80;;
57822;SDS011;43650;48.064;20.624;2023-04-19T05:07:43;10.27;;;6.40;;
57822;SDS011;43650;48.064;20.624;2023-04-19T05:08:43;9.57;;;5.63;;
57822;SDS011;43650;48.064;20.624;2023-04-19T05:09:44;11.68;;;6.43;;
57822;SDS011;43650;48.064;20.624;2023-04-19T05:10:45;9.90;;;5.90;;
57822;SDS011;43650;48.064;20.624;2023-04-19T05:11:45;11.20;;;6.77;;
57822;SDS011;43650;48.064;20.624;2023-04-19T05:12:45;13.67;;;6.23;;
57822;SDS011;43650;48.064;20.624;2023-04-19T05:13:46;11.70;;;6.20;;
57822;SDS011;43650;48.064;20.624;2023-04-19T05:14:46;9.57;;;6.23;;
57822;SDS011;43650;48.064;20.624;2023-04-19T05:15:47;9.90;;;6.50;;
57822;SDS011;43650;48.064;20.624;2023-04-19T05:16:47;18.97;;;7.77;;
57822;SDS011;43650;48.064;20.624;2023-04-19T05:17:48;9.83;;;6.33;;
57822;SDS011;43650;48.064;20.624;2023-04-19T05:18:48;11.63;;;6.37;;
57822;SDS011;43650;48.064;20.624;2023-04-19T05:19:48;12.10;;;6.60;;
57822;SDS011;43650;48.064;20.624;2023-04-19T05:20:50;10.73;;;6.00;;
57822;SDS011;43650;48.064;20.624;2023-04-19T05:21:50;9.30;;;5.93;;
57822;SDS011;43650;48.064;20.624;2023-04-19T05:22:55;14.23;;;6.23;;
57822;SDS011;43650;48.064;20.624;2023-04-19T05:23:56;11.38;;;6.85;;
57822;SDS011;43650;48.064;20.624;2023-04-19T05:24:57;14.23;;;6.17;;
57822;SDS011;43650;48.064;20.624;2023-04-19T05:25:57;12.10;;;6.73;;
57822;SDS011;43650;48.064;20.624;2023-04-19T05:26:57;15.43;;;7.30;;
57822;SDS011;43650;48.064;20.624;2023-04-19T05:27:58;17.57;;;6.53;;
57822;SDS011;43650;48.064;20.624;2023-04-19T05:28:58;10.57;;;6.73;;
57822;SDS011;43650;48.064;20.624;2023-04-19T05:29:59;14.03;;;7.43;;
57822;SDS011;43650;48.064;20.624;2023-04-19T05:30:59;15.00;;;6.90;;
57822;SDS011;43650;48.064;20.624;2023-04-19T05:32:00;16.70;;;7.50;;
57822;SDS011;43650;48.064;20.624;2023-04-19T05:33:00;12.43;;;6.70;;
57822;SDS011;43650;48.064;20.624;2023-04-19T05:34:01;12.53;;;7.27;;
57822;SDS011;43650;48.064;20.624;2023-04-19T05:35:01;18.77;;;6.57;;
57822;SDS011;43650;48.064;20.624;2023-04-19T05:36:02;13.00;;;7.17;;
57822;SDS011;43650;48.064;20.624;2023-04-19T05:37:04;8.45;;;6.15;;
57822;SDS011;43650;48.064;20.624;2023-04-19T05:38:04;13.15;;;6.30;;
57822;SDS011;43650;48.064;20.624;2023-04-19T05:39:05;17.67;;;7.62;;
57822;SDS011;43650;48.064;20.624;2023-04-19T05:40:06;17.80;;;7.53;;
57822;SDS011;43650;48.064;20.624;2023-04-19T05:41:09;21.45;;;7.75;;
57822;SDS011;43650;48.064;20.624;2023-04-19T05:42:09;12.17;;;7.50;;
57822;SDS011;43650;48.064;20.624;2023-04-19T05:43:10;11.97;;;6.17;;
57822;SDS011;43650;48.064;20.624;2023-04-19T05:44:10;13.70;;;6.17;;
57822;SDS011;43650;48.064;20.624;2023-04-19T05:45:10;13.87;;;6.90;;
57822;SDS011;43650;48.064;20.624;2023-04-19T05:46:11;17.80;;;6.53;;
57822;SDS011;43650;48.064;20.624;2023-04-19T05:47:11;12.13;;;6.93;;
57822;SDS011;43650;48.064;20.624;2023-04-19T05:48:12;13.77;;;7.60;;
57822;SDS011;43650;48.064;20.624;2023-04-19T05:49:12;10.13;;;6.10;;
57822;SDS011;43650;48.064;20.624;2023-04-19T05:50:13;11.00;;;6.50;;
57822;SDS011;43650;48.064;20.624;2023-04-19T05:51:16;10.90;;;6.75;;
57822;SDS011;43650;48.064;20.624;2023-04-19T05:52:17;12.70;;;7.00;;
57822;SDS011;43650;48.064;20.624;2023-04-19T05:53:18;12.27;;;7.07;;
57822;SDS011;43650;48.064;20.624;2023-04-19T05:54:18;13.07;;;8.20;;
57822;SDS011;43650;48.064;20.624;2023-04-19T05:55:19;11.23;;;7.57;;
57822;SDS011;43650;48.064;20.624;2023-04-19T05:56:19;14.97;;;6.90;;
57822;SDS011;43650;48.064;20.624;2023-04-19T05:57:20;10.03;;;7.57;;
57822;SDS011;43650;48.064;20.624;2023-04-19T05:58:20;16.63;;;8.80;;